Time,TemperatureF,DewpointF,PressureIn,WindDirection,WindDirectionDegrees,WindSpeedMPH,WindSpeedGustMPH,Humidity,HourlyPrecipIn,Conditions,Clouds,dailyrainin,SoftwareType,DateUTC
2013-03-10 00:02:00,23.0,18.0,30.40,North,355,0.0,-999.0,82,-99.99,,,-99.99,,2013-03-10 05:02:00,
2013-03-10 00:11:00,23.0,18.0,30.40,North,355,0.0,-999.0,82,-99.99,,,-99.99,,2013-03-10 05:11:00,
2013-03-10 00:22:00,23.0,19.0,30.39,North,355,0.0,-999.0,83,-99.99,,,-99.99,,2013-03-10 05:22:00,
2013-03-10 00:32:00,22.0,18.0,30.40,North,355,0.0,-999.0,83,-99.99,,,-99.99,,2013-03-10 05:32:00,
2013-03-10 00:42:00,22.0,18.0,30.40,North,355,0.0,-999.0,83,-99.99,,,-99.99,,2013-03-10 05:42:00,
2013-03-10 00:52:00,22.0,18.0,30.40,North,355,0.0,-999.0,83,-99.99,,,-99.99,,2013-03-10 05:52:00,
2013-03-10 01:02:00,22.0,18.0,30.39,North,355,0.0,-999.0,83,-99.99,,,-99.99,,2013-03-10 06:02:00,
2013-03-10 01:11:00,22.0,18.0,30.39,North,355,0.0,-999.0,83,-99.99,,,-99.99,,2013-03-10 06:11:00,
2013-03-10 01:22:00,21.0,17.0,30.40,North,355,0.0,-999.0,83,-99.99,,,-99.99,,2013-03-10 06:22:00,
2013-03-10 01:32:00,21.0,17.0,30.40,North,355,0.0,-999.0,83,-99.99,,,-99.99,,2013-03-10 06:32:00,
2013-03-10 01:42:00,21.0,17.0,30.40,North,355,0.0,-999.0,83,-99.99,,,-99.99,,2013-03-10 06:42:00,
2013-03-10 01:52:00,20.0,16.0,30.39,North,355,0.0,-999.0,84,-99.99,,,-99.99,,2013-03-10 06:52:00,
2013-03-10 03:02:00,20.0,16.0,30.38,North,355,0.0,-999.0,84,-99.99,,,-99.99,,2013-03-10 07:02:00,
2013-03-10 03:11:00,20.0,16.0,30.38,North,355,0.0,-999.0,84,-99.99,,,-99.99,,2013-03-10 07:11:00,
2013-03-10 03:21:00,20.0,16.0,30.37,North,355,0.0,-999.0,84,-99.99,,,-99.99,,2013-03-10 07:21:00,
2013-03-10 03:32:00,20.0,16.0,30.37,North,355,1.0,-999.0,84,-99.99,,,-99.99,,2013-03-10 07:32:00,
2013-03-10 03:42:00,20.0,16.0,30.37,North,355,0.0,-999.0,84,-99.99,,,-99.99,,2013-03-10 07:42:00,
2013-03-10 03:52:00,20.0,16.0,30.37,North,355,0.0,-999.0,84,-99.99,,,-99.99,,2013-03-10 07:52:00,
2013-03-10 04:02:00,20.0,16.0,30.38,North,355,0.0,-999.0,84,-99.99,,,-99.99,,2013-03-10 08:02:00,
2013-03-10 04:12:00,20.0,16.0,30.38,North,355,0.0,-999.0,84,-99.99,,,-99.99,,2013-03-10 08:12:00,
2013-03-10 04:21:00,19.0,15.0,30.38,North,355,0.0,-999.0,84,-99.99,,,-99.99,,2013-03-10 08:21:00,
2013-03-10 04:32:00,19.0,15.0,30.38,North,355,0.0,-999.0,84,-99.99,,,-99.99,,2013-03-10 08:32:00,
2013-03-10 04:42:00,19.0,15.0,30.38,North,355,0.0,-999.0,84,-99.99,,,-99.99,,2013-03-10 08:42:00,
2013-03-10 04:51:00,18.0,14.0,30.37,North,355,0.0,-999.0,84,-99.99,,,-99.99,,2013-03-10 08:51:00,
2013-03-10 05:02:00,18.0,14.0,30.37,North,355,0.0,-999.0,85,-99.99,,,-99.99,,2013-03-10 09:02:00,
2013-03-10 05:11:00,18.0,14.0,30.37,North,355,0.0,-999.0,85,-99.99,,,-99.99,,2013-03-10 09:11:00,
2013-03-10 05:21:00,18.0,14.0,30.37,North,355,0.0,-999.0,85,-99.99,,,-99.99,,2013-03-10 09:21:00,
2013-03-10 05:32:00,18.0,14.0,30.37,North,355,0.0,-999.0,85,-99.99,,,-99.99,,2013-03-10 09:32:00,
2013-03-10 05:41:00,18.0,14.0,30.37,North,355,0.0,-999.0,85,-99.99,,,-99.99,,2013-03-10 09:41:00,
2013-03-10 05:51:00,18.0,15.0,30.37,North,355,0.0,-999.0,86,-99.99,,,-99.99,,2013-03-10 09:51:00,
2013-03-10 06:02:00,18.0,15.0,30.37,North,355,0.0,-999.0,86,-99.99,,,-99.99,,2013-03-10 10:02:00,
2013-03-10 06:11:00,18.0,15.0,30.37,North,355,0.0,-999.0,86,-99.99,,,-99.99,,2013-03-10 10:11:00,
2013-03-10 06:21:00,18.0,15.0,30.37,North,355,0.0,-999.0,86,-99.99,,,-99.99,,2013-03-10 10:21:00,
2013-03-10 06:32:00,18.0,15.0,30.36,North,355,2.0,-999.0,86,-99.99,,,-99.99,,2013-03-10 10:32:00,
2013-03-10 06:42:00,18.0,15.0,30.37,North,355,0.0,-999.0,86,-99.99,,,-99.99,,2013-03-10 10:42:00,
2013-03-10 06:52:00,18.0,15.0,30.37,North,355,0.0,-999.0,86,-99.99,,,-99.99,,2013-03-10 10:52:00,
2013-03-10 07:02:00,18.0,15.0,30.37,North,355,0.0,-999.0,86,-99.99,,,-99.99,,2013-03-10 11:02:00,
2013-03-10 07:12:00,18.0,15.0,30.37,North,355,0.0,-999.0,86,-99.99,,,-99.99,,2013-03-10 11:12:00,
2013-03-10 07:21:00,18.0,15.0,30.37,North,355,0.0,-999.0,86,-99.99,,,-99.99,,2013-03-10 11:21:00,
2013-03-10 07:32:00,18.0,15.0,30.37,North,355,0.0,-999.0,86,-99.99,,,-99.99,,2013-03-10 11:32:00,
2013-03-10 07:42:00,18.0,15.0,30.37,North,355,0.0,-999.0,86,-99.99,,,-99.99,,2013-03-10 11:42:00,
2013-03-10 07:52:00,18.0,15.0,30.37,North,355,1.0,-999.0,86,-99.99,,,-99.99,,2013-03-10 11:52:00,
2013-03-10 08:02:00,18.0,15.0,30.38,North,355,0.0,-999.0,86,-99.99,,,-99.99,,2013-03-10 12:02:00,
2013-03-10 08:11:00,18.0,15.0,30.38,North,355,0.0,-999.0,86,-99.99,,,-99.99,,2013-03-10 12:11:00,
2013-03-10 08:21:00,18.0,15.0,30.37,North,355,0.0,-999.0,86,-99.99,,,-99.99,,2013-03-10 12:21:00,
2013-03-10 08:31:00,18.0,15.0,30.36,North,355,0.0,-999.0,86,-99.99,,,-99.99,,2013-03-10 12:31:00,
2013-03-10 08:42:00,18.0,15.0,30.36,North,355,0.0,-999.0,86,-99.99,,,-99.99,,2013-03-10 12:42:00,
2013-03-10 08:51:00,20.0,16.0,30.36,NNW,337,1.0,-999.0,86,-99.99,,,-99.99,,2013-03-10 12:51:00,
2013-03-10 09:01:00,22.0,18.0,30.36,NNW,337,0.0,-999.0,84,-99.99,,,-99.99,,2013-03-10 13:01:00,
2013-03-10 09:11:00,22.0,18.0,30.36,NNW,337,0.0,-999.0,84,-99.99,,,-99.99,,2013-03-10 13:11:00,
2013-03-10 09:21:00,24.0,19.0,30.36,NNW,337,1.0,-999.0,81,-99.99,,,-99.99,,2013-03-10 13:21:00,
2013-03-10 09:32:00,27.0,21.0,30.36,NNW,337,0.0,-999.0,78,-99.99,,,-99.99,,2013-03-10 13:32:00,
2013-03-10 09:42:00,27.0,21.0,30.36,NNW,337,0.0,-999.0,78,-99.99,,,-99.99,,2013-03-10 13:42:00,
2013-03-10 09:52:00,31.0,21.0,30.36,North,5,3.0,-999.0,67,-99.99,,,-99.99,,2013-03-10 13:52:00,
2013-03-10 10:02:00,37.0,24.0,30.35,North,5,1.0,-999.0,59,-99.99,,,-99.99,,2013-03-10 14:02:00,
2013-03-10 10:11:00,37.0,24.0,30.35,North,5,1.0,-999.0,59,-99.99,,,-99.99,,2013-03-10 14:11:00,
2013-03-10 10:22:00,42.0,23.0,30.35,North,5,2.0,-999.0,47,-99.99,,,-99.99,,2013-03-10 14:22:00,
2013-03-10 10:32:00,46.0,21.0,30.35,SW,228,2.0,-999.0,37,-99.99,,,-99.99,,2013-03-10 14:32:00,
2013-03-10 10:42:00,46.0,21.0,30.35,SW,228,2.0,-999.0,37,-99.99,,,-99.99,,2013-03-10 14:42:00,
2013-03-10 10:51:00,47.0,20.0,30.34,SSW,193,5.0,-999.0,34,-99.99,,,-99.99,,2013-03-10 14:51:00,
2013-03-10 11:01:00,47.0,19.0,30.34,South,179,6.0,-999.0,33,-99.99,,,-99.99,,2013-03-10 15:01:00,
2013-03-10 11:11:00,47.0,19.0,30.34,South,179,6.0,-999.0,33,-99.99,,,-99.99,,2013-03-10 15:11:00,
2013-03-10 11:21:00,47.0,20.0,30.35,SSW,202,7.0,-999.0,34,-99.99,,,-99.99,,2013-03-10 15:21:00,
2013-03-10 11:32:00,47.0,21.0,30.34,SSW,192,5.0,-999.0,35,-99.99,,,-99.99,,2013-03-10 15:32:00,
2013-03-10 11:42:00,47.0,21.0,30.34,SSW,192,5.0,-999.0,35,-99.99,,,-99.99,,2013-03-10 15:42:00,
2013-03-10 11:52:00,47.0,20.0,30.34,South,172,6.0,-999.0,34,-99.99,,,-99.99,,2013-03-10 15:52:00,
2013-03-10 12:02:00,48.0,20.0,30.33,SE,131,6.0,-999.0,33,-99.99,,,-99.99,,2013-03-10 16:02:00,
2013-03-10 12:12:00,48.0,20.0,30.33,SE,131,6.0,-999.0,33,-99.99,,,-99.99,,2013-03-10 16:12:00,
2013-03-10 12:21:00,48.0,20.0,30.33,SSE,147,6.0,-999.0,32,-99.99,,,-99.99,,2013-03-10 16:21:00,
2013-03-10 12:32:00,49.0,20.0,30.33,SSW,205,7.0,-999.0,31,-99.99,,,-99.99,,2013-03-10 16:32:00,
2013-03-10 12:42:00,49.0,20.0,30.33,SSW,205,7.0,-999.0,31,-99.99,,,-99.99,,2013-03-10 16:42:00,
2013-03-10 12:52:00,50.0,21.0,30.33,South,184,5.0,-999.0,31,-99.99,,,-99.99,,2013-03-10 16:52:00,
2013-03-10 13:01:00,50.0,20.0,30.33,SW,220,5.0,-999.0,30,-99.99,,,-99.99,,2013-03-10 17:01:00,
2013-03-10 13:11:00,50.0,20.0,30.33,SW,220,5.0,-999.0,30,-99.99,,,-99.99,,2013-03-10 17:11:00,
2013-03-10 13:21:00,50.0,20.0,30.33,SSW,194,5.0,-999.0,30,-99.99,,,-99.99,,2013-03-10 17:21:00,
2013-03-10 13:32:00,51.0,20.0,30.32,South,177,6.0,-999.0,29,-99.99,,,-99.99,,2013-03-10 17:32:00,
2013-03-10 13:41:00,51.0,20.0,30.32,South,177,6.0,-999.0,29,-99.99,,,-99.99,,2013-03-10 17:41:00,
2013-03-10 13:51:00,51.0,19.0,30.32,SSW,213,5.0,-999.0,28,-99.99,,,-99.99,,2013-03-10 17:51:00,
2013-03-10 14:01:00,52.0,20.0,30.31,South,176,4.0,-999.0,28,-99.99,,,-99.99,,2013-03-10 18:01:00,
2013-03-10 14:11:00,52.0,20.0,30.31,South,176,4.0,-999.0,28,-99.99,,,-99.99,,2013-03-10 18:11:00,
2013-03-10 14:22:00,52.0,20.0,30.30,SSW,192,4.0,-999.0,28,-99.99,,,-99.99,,2013-03-10 18:22:00,
2013-03-10 14:32:00,51.0,19.0,30.29,South,186,4.0,-999.0,28,-99.99,,,-99.99,,2013-03-10 18:32:00,
2013-03-10 14:42:00,51.0,19.0,30.29,South,186,4.0,-999.0,28,-99.99,,,-99.99,,2013-03-10 18:42:00,
2013-03-10 14:52:00,52.0,20.0,30.29,SW,223,5.0,-999.0,28,-99.99,,,-99.99,,2013-03-10 18:52:00,
2013-03-10 15:02:00,54.0,22.0,30.29,SW,236,4.0,-999.0,28,-99.99,,,-99.99,,2013-03-10 19:02:00,
2013-03-10 15:11:00,54.0,22.0,30.29,SW,236,4.0,-999.0,28,-99.99,,,-99.99,,2013-03-10 19:11:00,
2013-03-10 15:21:00,54.0,21.0,30.28,WSW,249,4.0,-999.0,27,-99.99,,,-99.99,,2013-03-10 19:21:00,
2013-03-10 15:32:00,53.0,20.0,30.28,SW,217,4.0,-999.0,27,-99.99,,,-99.99,,2013-03-10 19:32:00,
2013-03-10 15:42:00,53.0,20.0,30.28,SW,217,4.0,-999.0,27,-99.99,,,-99.99,,2013-03-10 19:42:00,
2013-03-10 15:52:00,53.0,21.0,30.27,SW,236,4.0,-999.0,28,-99.99,,,-99.99,,2013-03-10 19:52:00,
2013-03-10 16:02:00,53.0,22.0,30.27,SW,222,4.0,-999.0,29,-99.99,,,-99.99,,2013-03-10 20:02:00,
2013-03-10 16:13:00,53.0,22.0,30.27,SW,222,4.0,-999.0,29,-99.99,,,-99.99,,2013-03-10 20:13:00,
2013-03-10 16:22:00,53.0,21.0,30.26,South,190,4.0,-999.0,28,-99.99,,,-99.99,,2013-03-10 20:22:00,
2013-03-10 16:32:00,53.0,21.0,30.26,SSW,213,7.0,-999.0,28,-99.99,,,-99.99,,2013-03-10 20:32:00,
2013-03-10 16:43:00,53.0,21.0,30.26,SSW,213,7.0,-999.0,28,-99.99,,,-99.99,,2013-03-10 20:43:00,
2013-03-10 16:52:00,52.0,19.0,30.25,SSW,200,7.0,-999.0,27,-99.99,,,-99.99,,2013-03-10 20:52:00,
2013-03-10 17:02:00,51.0,19.0,30.26,South,170,6.0,-999.0,28,-99.99,,,-99.99,,2013-03-10 21:02:00,
2013-03-10 17:12:00,51.0,19.0,30.26,South,170,6.0,-999.0,28,-99.99,,,-99.99,,2013-03-10 21:12:00,
2013-03-10 17:23:00,52.0,19.0,30.25,SSW,209,5.0,-999.0,27,-99.99,,,-99.99,,2013-03-10 21:23:00,
2013-03-10 17:32:00,52.0,19.0,30.25,SSW,209,5.0,-999.0,27,-99.99,,,-99.99,,2013-03-10 21:32:00,
2013-03-10 17:42:00,52.0,19.0,30.25,SSW,209,5.0,-999.0,27,-99.99,,,-99.99,,2013-03-10 21:42:00,
2013-03-10 17:52:00,52.0,19.0,30.25,South,171,5.0,-999.0,27,-99.99,,,-99.99,,2013-03-10 21:52:00,
2013-03-10 18:03:00,51.0,19.0,30.25,SSW,193,2.0,-999.0,28,-99.99,,,-99.99,,2013-03-10 22:03:00,
2013-03-10 18:12:00,51.0,19.0,30.25,SSW,193,2.0,-999.0,28,-99.99,,,-99.99,,2013-03-10 22:12:00,
2013-03-10 18:22:00,50.0,19.0,30.24,South,171,7.0,-999.0,29,-99.99,,,-99.99,,2013-03-10 22:22:00,
2013-03-10 18:32:00,50.0,19.0,30.24,South,171,7.0,-999.0,29,-99.99,,,-99.99,,2013-03-10 22:32:00,
2013-03-10 18:43:00,50.0,19.0,30.24,South,171,7.0,-999.0,29,-99.99,,,-99.99,,2013-03-10 22:43:00,
2013-03-10 18:52:00,49.0,20.0,30.24,SSE,147,5.0,-999.0,32,-99.99,,,-99.99,,2013-03-10 22:52:00,
2013-03-10 19:03:00,49.0,21.0,30.25,South,188,4.0,-999.0,33,-99.99,,,-99.99,,2013-03-10 23:03:00,
2013-03-10 19:12:00,48.0,20.0,30.25,SE,132,4.0,-999.0,33,-99.99,,,-99.99,,2013-03-10 23:12:00,
2013-03-10 19:23:00,48.0,20.0,30.25,SE,132,4.0,-999.0,33,-99.99,,,-99.99,,2013-03-10 23:23:00,
2013-03-10 19:33:00,48.0,20.0,30.24,SSW,200,6.0,-999.0,33,-99.99,,,-99.99,,2013-03-10 23:33:00,
2013-03-10 19:42:00,48.0,20.0,30.24,SSW,200,6.0,-999.0,33,-99.99,,,-99.99,,2013-03-10 23:42:00,
2013-03-10 19:52:00,48.0,21.0,30.24,South,184,5.0,-999.0,34,-99.99,,,-99.99,,2013-03-10 23:52:00,
2013-03-10 20:03:00,47.0,20.0,30.23,WNW,290,8.0,-999.0,34,-99.99,,,-99.99,,2013-03-11 00:03:00,
2013-03-10 20:13:00,47.0,20.0,30.23,WNW,290,8.0,-999.0,34,-99.99,,,-99.99,,2013-03-11 00:13:00,
2013-03-10 20:23:00,47.0,21.0,30.23,SSE,165,9.0,-999.0,36,-99.99,,,-99.99,,2013-03-11 00:23:00,
2013-03-10 20:33:00,47.0,23.0,30.23,SSW,208,9.0,-999.0,38,-99.99,,,-99.99,,2013-03-11 00:33:00,
2013-03-10 20:43:00,47.0,23.0,30.23,SSW,208,9.0,-999.0,38,-99.99,,,-99.99,,2013-03-11 00:43:00,
2013-03-10 20:52:00,46.0,23.0,30.23,SW,224,7.0,-999.0,40,-99.99,,,-99.99,,2013-03-11 00:52:00,
2013-03-10 21:03:00,46.0,24.0,30.24,South,178,5.0,-999.0,41,-99.99,,,-99.99,,2013-03-11 01:03:00,
2013-03-10 21:13:00,46.0,24.0,30.24,South,178,5.0,-999.0,41,-99.99,,,-99.99,,2013-03-11 01:13:00,
2013-03-10 21:23:00,46.0,24.0,30.23,SSW,196,3.0,-999.0,42,-99.99,,,-99.99,,2013-03-11 01:23:00,
2013-03-10 21:32:00,46.0,24.0,30.23,SSW,203,8.0,-999.0,41,-99.99,,,-99.99,,2013-03-11 01:32:00,
2013-03-10 21:43:00,46.0,24.0,30.23,SSW,203,8.0,-999.0,41,-99.99,,,-99.99,,2013-03-11 01:43:00,
2013-03-10 21:52:00,46.0,25.0,30.22,South,190,7.0,-999.0,43,-99.99,,,-99.99,,2013-03-11 01:52:00,
2013-03-10 22:03:00,46.0,24.0,30.22,NNW,330,9.0,-999.0,42,-99.99,,,-99.99,,2013-03-11 02:03:00,
2013-03-10 22:12:00,46.0,24.0,30.22,NNW,330,9.0,-999.0,42,-99.99,,,-99.99,,2013-03-11 02:12:00,
2013-03-10 22:23:00,45.0,24.0,30.23,SE,138,5.0,-999.0,43,-99.99,,,-99.99,,2013-03-11 02:23:00,
2013-03-10 22:32:00,46.0,25.0,30.23,SE,138,8.0,-999.0,43,-99.99,,,-99.99,,2013-03-11 02:32:00,
2013-03-10 22:42:00,46.0,25.0,30.23,SE,138,8.0,-999.0,43,-99.99,,,-99.99,,2013-03-11 02:42:00,
2013-03-10 22:52:00,45.0,24.0,30.24,South,175,7.0,-999.0,43,-99.99,,,-99.99,,2013-03-11 02:52:00,
2013-03-10 23:02:00,45.0,25.0,30.24,SSW,211,5.0,-999.0,45,-99.99,,,-99.99,,2013-03-11 03:02:00,
2013-03-10 23:12:00,45.0,25.0,30.24,SSW,211,5.0,-999.0,45,-99.99,,,-99.99,,2013-03-11 03:12:00,
2013-03-10 23:22:00,45.0,25.0,30.24,SSW,206,7.0,-999.0,46,-99.99,,,-99.99,,2013-03-11 03:22:00,
2013-03-10 23:32:00,45.0,24.0,30.23,SSW,211,6.0,-999.0,44,-99.99,,,-99.99,,2013-03-11 03:32:00,
2013-03-10 23:42:00,45.0,24.0,30.23,SSW,211,6.0,-999.0,44,-99.99,,,-99.99,,2013-03-11 03:42:00,
2013-03-10 23:52:00,45.0,25.0,30.23,WSW,240,2.0,-999.0,45,-99.99,,,-99.99,,2013-03-11 03:52:00,